sensor_id;sensor_type;location;lat;lon;timestamp;temperature;humidity
69543;SHT31;56762;49.494;11.768;2023-04-24T00:00:55;10.03;91.88
69543;SHT31;56762;49.494;11.768;2023-04-24T00:03:24;10.03;91.98
69543;SHT31;56762;49.494;11.768;2023-04-24T00:05:54;10.01;91.87
69543;SHT31;56762;49.494;11.768;2023-04-24T00:08:22;9.97;91.82
69543;SHT31;56762;49.494;11.768;2023-04-24T00:10:50;9.95;91.98
69543;SHT31;56762;49.494;11.768;2023-04-24T00:13:19;9.91;92.05
69543;SHT31;56762;49.494;11.768;2023-04-24T00:15:47;9.92;92.12
69543;SHT31;56762;49.494;11.768;2023-04-24T00:18:15;9.92;92.12
69543;SHT31;56762;49.494;11.768;2023-04-24T00:20:43;9.92;92.13
69543;SHT31;56762;49.494;11.768;2023-04-24T00:23:13;9.91;92.04
69543;SHT31;56762;49.494;11.768;2023-04-24T00:25:40;9.91;92.10
69543;SHT31;56762;49.494;11.768;2023-04-24T00:28:09;9.89;92.03
69543;SHT31;56762;49.494;11.768;2023-04-24T00:30:36;9.91;92.02
69543;SHT31;56762;49.494;11.768;2023-04-24T00:33:04;9.88;92.16
69543;SHT31;56762;49.494;11.768;2023-04-24T00:35:33;9.91;92.38
69543;SHT31;56762;49.494;11.768;2023-04-24T00:38:01;9.91;92.33
69543;SHT31;56762;49.494;11.768;2023-04-24T00:40:30;9.91;92.27
69543;SHT31;56762;49.494;11.768;2023-04-24T00:43:00;9.91;92.24
69543;SHT31;56762;49.494;11.768;2023-04-24T00:45:28;9.92;92.20
69543;SHT31;56762;49.494;11.768;2023-04-24T00:47:57;9.94;92.36
69543;SHT31;56762;49.494;11.768;2023-04-24T00:50:26;9.94;92.41
69543;SHT31;56762;49.494;11.768;2023-04-24T00:52:54;9.94;92.25
69543;SHT31;56762;49.494;11.768;2023-04-24T00:55:22;9.97;92.17
69543;SHT31;56762;49.494;11.768;2023-04-24T00:57:51;9.92;92.03
69543;SHT31;56762;49.494;11.768;2023-04-24T01:00:20;9.89;91.99
69543;SHT31;56762;49.494;11.768;2023-04-24T01:02:48;9.89;92.06
69543;SHT31;56762;49.494;11.768;2023-04-24T01:05:18;9.87;92.12
69543;SHT31;56762;49.494;11.768;2023-04-24T01:07:46;9.82;92.35
69543;SHT31;56762;49.494;11.768;2023-04-24T01:10:15;9.81;92.46
69543;SHT31;56762;49.494;11.768;2023-04-24T01:12:44;9.85;92.35
69543;SHT31;56762;49.494;11.768;2023-04-24T01:15:14;9.84;92.20
69543;SHT31;56762;49.494;11.768;2023-04-24T01:17:42;9.85;92.18
69543;SHT31;56762;49.494;11.768;2023-04-24T01:20:10;9.82;92.22
69543;SHT31;56762;49.494;11.768;2023-04-24T01:22:39;9.79;91.93
69543;SHT31;56762;49.494;11.768;2023-04-24T01:25:08;9.79;91.90
69543;SHT31;56762;49.494;11.768;2023-04-24T01:27:36;9.75;91.89
69543;SHT31;56762;49.494;11.768;2023-04-24T01:30:06;9.70;91.95
69543;SHT31;56762;49.494;11.768;2023-04-24T01:32:34;9.64;92.05
69543;SHT31;56762;49.494;11.768;2023-04-24T01:35:03;9.62;92.21
69543;SHT31;56762;49.494;11.768;2023-04-24T01:37:32;9.54;92.39
69543;SHT31;56762;49.494;11.768;2023-04-24T01:40:01;9.55;92.50
69543;SHT31;56762;49.494;11.768;2023-04-24T01:42:30;9.54;92.54
69543;SHT31;56762;49.494;11.768;2023-04-24T01:44:59;9.54;92.51
69543;SHT31;56762;49.494;11.768;2023-04-24T01:47:27;9.54;92.53
69543;SHT31;56762;49.494;11.768;2023-04-24T01:49:55;9.55;92.70
69543;SHT31;56762;49.494;11.768;2023-04-24T01:52:23;9.57;92.66
69543;SHT31;56762;49.494;11.768;2023-04-24T01:54:52;9.55;92.52
69543;SHT31;56762;49.494;11.768;2023-04-24T01:57:21;9.52;92.48
69543;SHT31;56762;49.494;11.768;2023-04-24T01:59:50;9.51;92.65
69543;SHT31;56762;49.494;11.768;2023-04-24T02:02:18;9.47;92.68
69543;SHT31;56762;49.494;11.768;2023-04-24T02:04:48;9.47;92.68
69543;SHT31;56762;49.494;11.768;2023-04-24T02:07:16;9.47;92.60
69543;SHT31;56762;49.494;11.768;2023-04-24T02:09:43;9.46;92.57
69543;SHT31;56762;49.494;11.768;2023-04-24T02:12:11;9.44;92.57
69543;SHT31;56762;49.494;11.768;2023-04-24T02:14:41;9.38;92.87
69543;SHT31;56762;49.494;11.768;2023-04-24T02:17:10;9.34;92.72
69543;SHT31;56762;49.494;11.768;2023-04-24T02:19:39;9.33;92.79
69543;SHT31;56762;49.494;11.768;2023-04-24T02:22:08;9.33;92.91
69543;SHT31;56762;49.494;11.768;2023-04-24T02:24:37;9.30;92.95
69543;SHT31;56762;49.494;11.768;2023-04-24T02:27:05;9.31;93.10
69543;SHT31;56762;49.494;11.768;2023-04-24T02:29:33;9.34;93.03
69543;SHT31;56762;49.494;11.768;2023-04-24T02:34:37;9.38;93.15
69543;SHT31;56762;49.494;11.768;2023-04-24T02:37:06;9.41;93.13
69543;SHT31;56762;49.494;11.768;2023-04-24T02:39:36;9.41;93.04
69543;SHT31;56762;49.494;11.768;2023-04-24T02:42:04;9.41;93.04
69543;SHT31;56762;49.494;11.768;2023-04-24T02:44:32;9.41;92.87
69543;SHT31;56762;49.494;11.768;2023-04-24T02:47:00;9.41;92.97
69543;SHT31;56762;49.494;11.768;2023-04-24T02:49:29;9.46;93.00
69543;SHT31;56762;49.494;11.768;2023-04-24T02:51:58;9.47;92.87
69543;SHT31;56762;49.494;11.768;2023-04-24T02:54:26;9.47;92.73
69543;SHT31;56762;49.494;11.768;2023-04-24T02:56:54;9.50;92.82
69543;SHT31;56762;49.494;11.768;2023-04-24T02:59:23;9.50;92.75
69543;SHT31;56762;49.494;11.768;2023-04-24T03:01:51;9.51;92.70
69543;SHT31;56762;49.494;11.768;2023-04-24T03:04:19;9.51;92.69
69543;SHT31;56762;49.494;11.768;2023-04-24T03:06:49;9.50;92.78
69543;SHT31;56762;49.494;11.768;2023-04-24T03:09:20;9.51;92.86
69543;SHT31;56762;49.494;11.768;2023-04-24T03:11:50;9.55;92.81
69543;SHT31;56762;49.494;11.768;2023-04-24T03:14:18;9.59;92.66
69543;SHT31;56762;49.494;11.768;2023-04-24T03:16:46;9.61;92.59
69543;SHT31;56762;49.494;11.768;2023-04-24T03:19:14;9.62;92.42
69543;SHT31;56762;49.494;11.768;2023-04-24T03:21:42;9.68;92.34
69543;SHT31;56762;49.494;11.768;2023-04-24T03:24:10;9.65;92.19
69543;SHT31;56762;49.494;11.768;2023-04-24T03:26:39;9.64;92.26
69543;SHT31;56762;49.494;11.768;2023-04-24T03:29:07;9.59;92.16
69543;SHT31;56762;49.494;11.768;2023-04-24T03:31:35;9.59;92.01
69543;SHT31;56762;49.494;11.768;2023-04-24T03:34:04;9.57;92.22
69543;SHT31;56762;49.494;11.768;2023-04-24T03:36:33;9.58;92.27
69543;SHT31;56762;49.494;11.768;2023-04-24T03:39:02;9.54;92.22
69543;SHT31;56762;49.494;11.768;2023-04-24T03:41:30;9.55;92.14
69543;SHT31;56762;49.494;11.768;2023-04-24T03:43:59;9.54;92.28
69543;SHT31;56762;49.494;11.768;2023-04-24T03:46:27;9.52;92.00
69543;SHT31;56762;49.494;11.768;2023-04-24T03:48:56;9.50;92.15
69543;SHT31;56762;49.494;11.768;2023-04-24T03:51:24;9.47;92.17
69543;SHT31;56762;49.494;11.768;2023-04-24T03:53:54;9.48;92.16
69543;SHT31;56762;49.494;11.768;2023-04-24T03:56:22;9.46;92.18
69543;SHT31;56762;49.494;11.768;2023-04-24T03:58:50;9.50;92.02
69543;SHT31;56762;49.494;11.768;2023-04-24T04:01:19;9.48;91.83
69543;SHT31;56762;49.494;11.768;2023-04-24T04:03:47;9.50;91.93
69543;SHT31;56762;49.494;11.768;2023-04-24T04:06:15;9.48;92.00
69543;SHT31;56762;49.494;11.768;2023-04-24T04:08:43;9.47;91.89
69543;SHT31;56762;49.494;11.768;2023-04-24T04:11:10;9.46;91.78
69543;SHT31;56762;49.494;11.768;2023-04-24T04:13:38;9.41;92.05
69543;SHT31;56762;49.494;11.768;2023-04-24T04:16:06;9.40;91.99
69543;SHT31;56762;49.494;11.768;2023-04-24T04:18:37;9.37;91.93
69543;SHT31;56762;49.494;11.768;2023-04-24T04:21:05;9.38;91.94
69543;SHT31;56762;49.494;11.768;2023-04-24T04:23:33;9.40;91.94
69543;SHT31;56762;49.494;11.768;2023-04-24T04:26:01;9.37;91.88
69543;SHT31;56762;49.494;11.768;2023-04-24T04:28:29;9.36;91.92
69543;SHT31;56762;49.494;11.768;2023-04-24T04:30:58;9.34;91.94
69543;SHT31;56762;49.494;11.768;2023-04-24T04:33:26;9.33;92.01
69543;SHT31;56762;49.494;11.768;2023-04-24T04:35:55;9.30;91.90
69543;SHT31;56762;49.494;11.768;2023-04-24T04:38:24;9.28;92.02
69543;SHT31;56762;49.494;11.768;2023-04-24T04:40:53;9.34;92.17
69543;SHT31;56762;49.494;11.768;2023-04-24T04:43:23;9.33;92.10
69543;SHT31;56762;49.494;11.768;2023-04-24T04:45:51;9.33;92.08
69543;SHT31;56762;49.494;11.768;2023-04-24T04:48:21;9.33;92.11
69543;SHT31;56762;49.494;11.768;2023-04-24T04:50:49;9.34;91.98
69543;SHT31;56762;49.494;11.768;2023-04-24T04:53:18;9.36;91.90
69543;SHT31;56762;49.494;11.768;2023-04-24T04:55:46;9.34;92.00
69543;SHT31;56762;49.494;11.768;2023-04-24T04:58:14;9.36;92.06
69543;SHT31;56762;49.494;11.768;2023-04-24T05:00:42;9.38;92.09
69543;SHT31;56762;49.494;11.768;2023-04-24T05:03:10;9.40;92.03
69543;SHT31;56762;49.494;11.768;2023-04-24T05:05:46;9.40;91.87
69543;SHT31;56762;49.494;11.768;2023-04-24T05:08:14;9.40;91.96
69543;SHT31;56762;49.494;11.768;2023-04-24T05:10:54;9.44;91.88
69543;SHT31;56762;49.494;11.768;2023-04-24T05:13:22;9.44;91.91
69543;SHT31;56762;49.494;11.768;2023-04-24T05:16:05;9.44;91.93
69543;SHT31;56762;49.494;11.768;2023-04-24T05:18:33;9.48;91.81
69543;SHT31;56762;49.494;11.768;2023-04-24T05:21:00;9.51;91.87
69543;SHT31;56762;49.494;11.768;2023-04-24T05:23:28;9.54;92.02
69543;SHT31;56762;49.494;11.768;2023-04-24T05:25:58;9.61;92.23
69543;SHT31;56762;49.494;11.768;2023-04-24T05:28:25;9.67;91.36
69543;SHT31;56762;49.494;11.768;2023-04-24T05:30:54;9.74;91.41
69543;SHT31;56762;49.494;11.768;2023-04-24T05:33:23;9.78;91.16
69543;SHT31;56762;49.494;11.768;2023-04-24T05:35:50;9.89;90.90
69543;SHT31;56762;49.494;11.768;2023-04-24T05:38:18;10.02;90.66
69543;SHT31;56762;49.494;11.768;2023-04-24T05:40:46;10.15;90.73
69543;SHT31;56762;49.494;11.768;2023-04-24T05:43:15;10.25;90.31
69543;SHT31;56762;49.494;11.768;2023-04-24T05:45:43;10.35;90.60
69543;SHT31;56762;49.494;11.768;2023-04-24T05:48:10;10.42;90.31
69543;SHT31;56762;49.494;11.768;2023-04-24T05:50:38;10.50;90.09
69543;SHT31;56762;49.494;11.768;2023-04-24T05:53:06;10.60;89.87
69543;SHT31;56762;49.494;11.768;2023-04-24T05:55:34;10.68;89.69
69543;SHT31;56762;49.494;11.768;2023-04-24T05:58:02;10.76;89.76
69543;SHT31;56762;49.494;11.768;2023-04-24T06:00:31;10.83;89.31
69543;SHT31;56762;49.494;11.768;2023-04-24T06:03:00;10.97;89.66
69543;SHT31;56762;49.494;11.768;2023-04-24T06:05:30;11.12;89.58
69543;SHT31;56762;49.494;11.768;2023-04-24T06:07:58;11.27;89.48
69543;SHT31;56762;49.494;11.768;2023-04-24T06:10:26;11.40;88.77
69543;SHT31;56762;49.494;11.768;2023-04-24T06:12:53;11.54;88.25
69543;SHT31;56762;49.494;11.768;2023-04-24T06:15:22;11.61;87.07
69543;SHT31;56762;49.494;11.768;2023-04-24T06:17:52;11.62;87.22
69543;SHT31;56762;49.494;11.768;2023-04-24T06:20:19;11.68;87.41
69543;SHT31;56762;49.494;11.768;2023-04-24T06:22:47;11.66;86.73
69543;SHT31;56762;49.494;11.768;2023-04-24T06:25:14;11.68;86.35
69543;SHT31;56762;49.494;11.768;2023-04-24T06:27:42;11.70;86.16
69543;SHT31;56762;49.494;11.768;2023-04-24T06:30:11;11.82;86.47
69543;SHT31;56762;49.494;11.768;2023-04-24T06:32:39;11.91;86.72
69543;SHT31;56762;49.494;11.768;2023-04-24T06:35:09;11.99;86.37
69543;SHT31;56762;49.494;11.768;2023-04-24T06:37:38;12.10;86.29
69543;SHT31;56762;49.494;11.768;2023-04-24T06:40:07;12.14;85.99
69543;SHT31;56762;49.494;11.768;2023-04-24T06:42:35;12.20;85.85
69543;SHT31;56762;49.494;11.768;2023-04-24T06:45:04;12.27;85.80
69543;SHT31;56762;49.494;11.768;2023-04-24T06:47:32;12.33;85.13
69543;SHT31;56762;49.494;11.768;2023-04-24T06:50:00;12.38;84.71
69543;SHT31;56762;49.494;11.768;2023-04-24T06:52:29;12.44;84.02
69543;SHT31;56762;49.494;11.768;2023-04-24T06:55:00;12.42;83.54
69543;SHT31;56762;49.494;11.768;2023-04-24T06:57:28;12.38;82.28
69543;SHT31;56762;49.494;11.768;2023-04-24T06:59:56;12.38;82.17
69543;SHT31;56762;49.494;11.768;2023-04-24T07:02:24;12.37;82.30
69543;SHT31;56762;49.494;11.768;2023-04-24T07:04:53;12.38;81.84
69543;SHT31;56762;49.494;11.768;2023-04-24T07:07:21;12.49;82.66
69543;SHT31;56762;49.494;11.768;2023-04-24T07:09:52;12.57;81.99
69543;SHT31;56762;49.494;11.768;2023-04-24T07:12:20;12.64;81.66
69543;SHT31;56762;49.494;11.768;2023-04-24T07:14:48;12.77;80.63
69543;SHT31;56762;49.494;11.768;2023-04-24T07:17:16;12.85;79.79
69543;SHT31;56762;49.494;11.768;2023-04-24T07:19:43;13.05;80.61
69543;SHT31;56762;49.494;11.768;2023-04-24T07:22:12;13.00;79.09
69543;SHT31;56762;49.494;11.768;2023-04-24T07:24:43;13.09;79.11
69543;SHT31;56762;49.494;11.768;2023-04-24T07:27:12;13.06;77.60
69543;SHT31;56762;49.494;11.768;2023-04-24T07:29:41;13.05;77.30
69543;SHT31;56762;49.494;11.768;2023-04-24T07:32:10;12.98;76.62
69543;SHT31;56762;49.494;11.768;2023-04-24T07:34:37;12.92;75.64
69543;SHT31;56762;49.494;11.768;2023-04-24T07:37:05;12.78;76.85
69543;SHT31;56762;49.494;11.768;2023-04-24T07:39:32;12.49;77.14
69543;SHT31;56762;49.494;11.768;2023-04-24T07:42:00;12.33;77.04
69543;SHT31;56762;49.494;11.768;2023-04-24T07:44:30;12.16;78.17
69543;SHT31;56762;49.494;11.768;2023-04-24T07:46:58;12.17;77.78
69543;SHT31;56762;49.494;11.768;2023-04-24T07:49:26;12.18;75.81
69543;SHT31;56762;49.494;11.768;2023-04-24T07:51:54;12.30;76.13
69543;SHT31;56762;49.494;11.768;2023-04-24T07:54:22;12.27;72.55
69543;SHT31;56762;49.494;11.768;2023-04-24T07:56:49;12.28;73.19
69543;SHT31;56762;49.494;11.768;2023-04-24T07:59:17;12.33;71.89
69543;SHT31;56762;49.494;11.768;2023-04-24T08:01:47;12.34;72.78
69543;SHT31;56762;49.494;11.768;2023-04-24T08:04:15;12.38;70.14
69543;SHT31;56762;49.494;11.768;2023-04-24T08:06:44;12.42;71.64
69543;SHT31;56762;49.494;11.768;2023-04-24T08:09:12;12.49;73.07
69543;SHT31;56762;49.494;11.768;2023-04-24T08:11:39;12.57;70.28
69543;SHT31;56762;49.494;11.768;2023-04-24T08:14:07;12.58;70.48
69543;SHT31;56762;49.494;11.768;2023-04-24T08:16:35;12.61;70.62
69543;SHT31;56762;49.494;11.768;2023-04-24T08:19:04;12.67;69.66
69543;SHT31;56762;49.494;11.768;2023-04-24T08:21:32;12.74;69.04
69543;SHT31;56762;49.494;11.768;2023-04-24T08:23:59;12.89;68.98
69543;SHT31;56762;49.494;11.768;2023-04-24T08:26:31;12.89;66.22
69543;SHT31;56762;49.494;11.768;2023-04-24T08:28:59;12.85;65.38
69543;SHT31;56762;49.494;11.768;2023-04-24T08:31:27;12.92;64.99
69543;SHT31;56762;49.494;11.768;2023-04-24T08:33:55;12.98;65.18
69543;SHT31;56762;49.494;11.768;2023-04-24T08:36:24;13.15;66.12
69543;SHT31;56762;49.494;11.768;2023-04-24T08:39:09;13.24;65.34
69543;SHT31;56762;49.494;11.768;2023-04-24T08:41:37;13.27;64.92
69543;SHT31;56762;49.494;11.768;2023-04-24T08:44:06;13.33;63.92
69543;SHT31;56762;49.494;11.768;2023-04-24T08:46:36;13.37;62.78
69543;SHT31;56762;49.494;11.768;2023-04-24T08:49:04;13.46;63.57
69543;SHT31;56762;49.494;11.768;2023-04-24T08:51:34;13.53;63.03
69543;SHT31;56762;49.494;11.768;2023-04-24T08:54:04;13.47;62.23
69543;SHT31;56762;49.494;11.768;2023-04-24T08:56:36;13.43;62.13
69543;SHT31;56762;49.494;11.768;2023-04-24T08:59:06;13.37;61.28
69543;SHT31;56762;49.494;11.768;2023-04-24T09:01:34;13.37;62.58
69543;SHT31;56762;49.494;11.768;2023-04-24T09:04:03;13.27;60.95
69543;SHT31;56762;49.494;11.768;2023-04-24T09:06:33;13.23;60.99
69543;SHT31;56762;49.494;11.768;2023-04-24T09:09:02;13.20;62.34
69543;SHT31;56762;49.494;11.768;2023-04-24T09:11:31;13.27;61.24
69543;SHT31;56762;49.494;11.768;2023-04-24T09:13:59;13.35;62.79
69543;SHT31;56762;49.494;11.768;2023-04-24T09:16:27;13.39;61.76
69543;SHT31;56762;49.494;11.768;2023-04-24T09:18:56;13.53;63.05
69543;SHT31;56762;49.494;11.768;2023-04-24T09:21:24;13.64;62.57
69543;SHT31;56762;49.494;11.768;2023-04-24T09:24:00;13.68;61.84
69543;SHT31;56762;49.494;11.768;2023-04-24T09:26:30;13.74;62.91
69543;SHT31;56762;49.494;11.768;2023-04-24T09:29:00;13.87;61.67
69543;SHT31;56762;49.494;11.768;2023-04-24T09:31:28;13.71;60.66
69543;SHT31;56762;49.494;11.768;2023-04-24T09:33:57;13.61;60.88
69543;SHT31;56762;49.494;11.768;2023-04-24T09:36:29;13.66;61.41
69543;SHT31;56762;49.494;11.768;2023-04-24T09:39:01;13.58;61.08
69543;SHT31;56762;49.494;11.768;2023-04-24T09:41:32;13.57;60.65
69543;SHT31;56762;49.494;11.768;2023-04-24T09:44:11;13.56;59.87
69543;SHT31;56762;49.494;11.768;2023-04-24T09:46:40;13.61;60.83
69543;SHT31;56762;49.494;11.768;2023-04-24T09:49:10;13.68;59.75
69543;SHT31;56762;49.494;11.768;2023-04-24T09:51:38;13.63;58.62
69543;SHT31;56762;49.494;11.768;2023-04-24T09:54:14;13.53;59.79
69543;SHT31;56762;49.494;11.768;2023-04-24T09:56:44;13.56;60.53
69543;SHT31;56762;49.494;11.768;2023-04-24T09:59:13;13.53;59.69
69543;SHT31;56762;49.494;11.768;2023-04-24T10:01:41;13.68;60.52
69543;SHT31;56762;49.494;11.768;2023-04-24T10:04:18;13.85;61.44
69543;SHT31;56762;49.494;11.768;2023-04-24T10:06:47;13.98;60.63
69543;SHT31;56762;49.494;11.768;2023-04-24T10:09:18;14.04;60.39
69543;SHT31;56762;49.494;11.768;2023-04-24T10:11:49;14.07;58.34
69543;SHT31;56762;49.494;11.768;2023-04-24T10:14:18;14.04;57.97
69543;SHT31;56762;49.494;11.768;2023-04-24T10:16:47;13.85;57.78
69543;SHT31;56762;49.494;11.768;2023-04-24T10:19:16;13.84;57.79
69543;SHT31;56762;49.494;11.768;2023-04-24T10:21:45;13.68;57.59
69543;SHT31;56762;49.494;11.768;2023-04-24T10:24:14;13.58;58.11
69543;SHT31;56762;49.494;11.768;2023-04-24T10:26:44;13.57;57.82
69543;SHT31;56762;49.494;11.768;2023-04-24T10:29:13;13.50;57.77
69543;SHT31;56762;49.494;11.768;2023-04-24T10:31:42;13.56;58.10
69543;SHT31;56762;49.494;11.768;2023-04-24T10:34:13;13.61;59.27
69543;SHT31;56762;49.494;11.768;2023-04-24T10:36:44;13.64;58.62
69543;SHT31;56762;49.494;11.768;2023-04-24T10:39:14;13.77;58.27
69543;SHT31;56762;49.494;11.768;2023-04-24T10:41:44;13.84;57.70
69543;SHT31;56762;49.494;11.768;2023-04-24T10:44:14;13.98;56.89
69543;SHT31;56762;49.494;11.768;2023-04-24T10:46:44;13.97;56.57
69543;SHT31;56762;49.494;11.768;2023-04-24T10:49:12;13.88;55.67
69543;SHT31;56762;49.494;11.768;2023-04-24T10:51:48;13.77;56.92
69543;SHT31;56762;49.494;11.768;2023-04-24T10:54:23;13.58;56.52
69543;SHT31;56762;49.494;11.768;2023-04-24T10:56:53;13.49;55.45
69543;SHT31;56762;49.494;11.768;2023-04-24T10:59:39;13.47;56.26
69543;SHT31;56762;49.494;11.768;2023-04-24T11:02:08;13.39;57.02
69543;SHT31;56762;49.494;11.768;2023-04-24T11:04:35;13.33;58.18
69543;SHT31;56762;49.494;11.768;2023-04-24T11:07:04;13.32;58.14
69543;SHT31;56762;49.494;11.768;2023-04-24T11:09:32;13.35;58.91
69543;SHT31;56762;49.494;11.768;2023-04-24T11:12:05;13.47;57.87
69543;SHT31;56762;49.494;11.768;2023-04-24T11:15:01;13.74;59.47
69543;SHT31;56762;49.494;11.768;2023-04-24T11:17:29;13.97;58.54
69543;SHT31;56762;49.494;11.768;2023-04-24T11:20:01;13.89;55.23
69543;SHT31;56762;49.494;11.768;2023-04-24T11:22:53;13.94;54.44
69543;SHT31;56762;49.494;11.768;2023-04-24T11:25:22;13.88;53.70
69543;SHT31;56762;49.494;11.768;2023-04-24T11:28:03;13.85;51.95
69543;SHT31;56762;49.494;11.768;2023-04-24T11:30:32;14.04;52.89
69543;SHT31;56762;49.494;11.768;2023-04-24T11:33:02;14.26;55.71
69543;SHT31;56762;49.494;11.768;2023-04-24T11:35:35;14.48;50.06
69543;SHT31;56762;49.494;11.768;2023-04-24T11:38:04;14.66;49.14
69543;SHT31;56762;49.494;11.768;2023-04-24T11:40:34;14.69;48.91
69543;SHT31;56762;49.494;11.768;2023-04-24T11:43:04;14.55;50.64
69543;SHT31;56762;49.494;11.768;2023-04-24T11:45:33;14.42;52.41
69543;SHT31;56762;49.494;11.768;2023-04-24T11:48:02;14.15;54.46
69543;SHT31;56762;49.494;11.768;2023-04-24T11:50:30;13.92;55.58
69543;SHT31;56762;49.494;11.768;2023-04-24T11:52:58;13.92;57.04
69543;SHT31;56762;49.494;11.768;2023-04-24T11:55:28;13.75;55.92
69543;SHT31;56762;49.494;11.768;2023-04-24T11:57:57;13.49;55.60
69543;SHT31;56762;49.494;11.768;2023-04-24T12:00:28;13.24;56.86
69543;SHT31;56762;49.494;11.768;2023-04-24T12:03:04;13.18;57.44
69543;SHT31;56762;49.494;11.768;2023-04-24T12:05:34;13.32;57.47
69543;SHT31;56762;49.494;11.768;2023-04-24T12:08:02;13.24;54.38
69543;SHT31;56762;49.494;11.768;2023-04-24T12:10:32;13.33;52.54
69543;SHT31;56762;49.494;11.768;2023-04-24T12:13:01;13.42;52.37
69543;SHT31;56762;49.494;11.768;2023-04-24T12:15:30;13.44;51.67
69543;SHT31;56762;49.494;11.768;2023-04-24T12:17:58;13.40;51.12
69543;SHT31;56762;49.494;11.768;2023-04-24T12:20:27;13.43;51.07
69543;SHT31;56762;49.494;11.768;2023-04-24T12:22:57;13.64;51.86
69543;SHT31;56762;49.494;11.768;2023-04-24T12:25:26;13.66;50.47
69543;SHT31;56762;49.494;11.768;2023-04-24T12:28:08;13.67;51.17
69543;SHT31;56762;49.494;11.768;2023-04-24T12:30:41;13.73;52.05
69543;SHT31;56762;49.494;11.768;2023-04-24T12:33:10;13.71;53.17
69543;SHT31;56762;49.494;11.768;2023-04-24T12:35:40;13.74;51.92
69543;SHT31;56762;49.494;11.768;2023-04-24T12:38:09;13.82;52.38
69543;SHT31;56762;49.494;11.768;2023-04-24T12:40:36;13.74;51.53
69543;SHT31;56762;49.494;11.768;2023-04-24T12:43:13;13.71;51.37
69543;SHT31;56762;49.494;11.768;2023-04-24T12:45:42;13.60;52.21
69543;SHT31;56762;49.494;11.768;2023-04-24T12:48:11;13.40;52.85
69543;SHT31;56762;49.494;11.768;2023-04-24T12:50:40;13.24;54.27
69543;SHT31;56762;49.494;11.768;2023-04-24T12:53:12;12.89;55.09
69543;SHT31;56762;49.494;11.768;2023-04-24T12:55:39;12.65;57.48
69543;SHT31;56762;49.494;11.768;2023-04-24T12:58:07;12.44;57.37
69543;SHT31;56762;49.494;11.768;2023-04-24T13:00:36;12.41;59.46
69543;SHT31;56762;49.494;11.768;2023-04-24T13:03:05;12.48;58.70
69543;SHT31;56762;49.494;11.768;2023-04-24T13:05:33;12.49;57.63
69543;SHT31;56762;49.494;11.768;2023-04-24T13:08:01;12.67;58.32
69543;SHT31;56762;49.494;11.768;2023-04-24T13:10:29;12.82;58.03
69543;SHT31;56762;49.494;11.768;2023-04-24T13:12:56;13.08;58.20
69543;SHT31;56762;49.494;11.768;2023-04-24T13:15:24;13.19;55.24
69543;SHT31;56762;49.494;11.768;2023-04-24T13:17:52;13.22;54.72
69543;SHT31;56762;49.494;11.768;2023-04-24T13:20:23;13.15;54.94
69543;SHT31;56762;49.494;11.768;2023-04-24T13:22:50;13.18;54.85
69543;SHT31;56762;49.494;11.768;2023-04-24T13:25:19;13.24;53.94
69543;SHT31;56762;49.494;11.768;2023-04-24T13:27:47;13.20;53.69
69543;SHT31;56762;49.494;11.768;2023-04-24T13:30:15;13.23;54.38
69543;SHT31;56762;49.494;11.768;2023-04-24T13:32:42;13.26;53.62
69543;SHT31;56762;49.494;11.768;2023-04-24T13:35:10;13.36;55.73
69543;SHT31;56762;49.494;11.768;2023-04-24T13:37:39;13.42;54.42
69543;SHT31;56762;49.494;11.768;2023-04-24T13:40:08;13.36;54.13
69543;SHT31;56762;49.494;11.768;2023-04-24T13:42:36;13.29;54.26
69543;SHT31;56762;49.494;11.768;2023-04-24T13:45:04;13.40;54.58
69543;SHT31;56762;49.494;11.768;2023-04-24T13:47:49;13.43;55.17
69543;SHT31;56762;49.494;11.768;2023-04-24T13:50:18;13.51;56.86
69543;SHT31;56762;49.494;11.768;2023-04-24T13:52:48;13.37;55.58
69543;SHT31;56762;49.494;11.768;2023-04-24T13:55:16;13.15;55.15
69543;SHT31;56762;49.494;11.768;2023-04-24T13:57:44;13.09;55.89
69543;SHT31;56762;49.494;11.768;2023-04-24T14:00:13;12.99;56.48
69543;SHT31;56762;49.494;11.768;2023-04-24T14:02:41;13.00;54.88
69543;SHT31;56762;49.494;11.768;2023-04-24T14:05:09;13.13;54.71
69543;SHT31;56762;49.494;11.768;2023-04-24T14:07:38;13.23;55.35
69543;SHT31;56762;49.494;11.768;2023-04-24T14:10:08;13.27;53.41
69543;SHT31;56762;49.494;11.768;2023-04-24T14:12:36;13.35;54.27
69543;SHT31;56762;49.494;11.768;2023-04-24T14:15:04;13.37;54.36
69543;SHT31;56762;49.494;11.768;2023-04-24T14:17:32;13.29;54.09
69543;SHT31;56762;49.494;11.768;2023-04-24T14:20:00;13.27;54.43
69543;SHT31;56762;49.494;11.768;2023-04-24T14:22:29;13.33;55.38
69543;SHT31;56762;49.494;11.768;2023-04-24T14:24:57;13.30;54.81
69543;SHT31;56762;49.494;11.768;2023-04-24T14:27:27;13.29;54.90
69543;SHT31;56762;49.494;11.768;2023-04-24T14:29:55;13.13;54.57
69543;SHT31;56762;49.494;11.768;2023-04-24T14:32:23;13.05;55.98
69543;SHT31;56762;49.494;11.768;2023-04-24T14:34:51;12.96;56.96
69543;SHT31;56762;49.494;11.768;2023-04-24T14:37:18;13.03;57.31
69543;SHT31;56762;49.494;11.768;2023-04-24T14:39:46;13.13;58.32
69543;SHT31;56762;49.494;11.768;2023-04-24T14:42:27;13.23;57.72
69543;SHT31;56762;49.494;11.768;2023-04-24T14:44:55;13.16;58.41
69543;SHT31;56762;49.494;11.768;2023-04-24T14:47:23;13.29;59.42
69543;SHT31;56762;49.494;11.768;2023-04-24T14:49:51;13.46;58.65
69543;SHT31;56762;49.494;11.768;2023-04-24T14:52:19;13.60;59.22
69543;SHT31;56762;49.494;11.768;2023-04-24T14:54:47;13.43;56.17
69543;SHT31;56762;49.494;11.768;2023-04-24T14:57:15;13.24;53.73
69543;SHT31;56762;49.494;11.768;2023-04-24T14:59:45;13.15;53.75
69543;SHT31;56762;49.494;11.768;2023-04-24T15:02:12;13.03;55.67
69543;SHT31;56762;49.494;11.768;2023-04-24T15:04:43;12.92;55.16
69543;SHT31;56762;49.494;11.768;2023-04-24T15:07:11;12.75;55.03
69543;SHT31;56762;49.494;11.768;2023-04-24T15:09:38;12.68;56.93
69543;SHT31;56762;49.494;11.768;2023-04-24T15:12:06;12.62;56.40
69543;SHT31;56762;49.494;11.768;2023-04-24T15:14:34;12.57;55.63
69543;SHT31;56762;49.494;11.768;2023-04-24T15:17:03;12.57;56.53
69543;SHT31;56762;49.494;11.768;2023-04-24T15:19:31;12.51;57.12
69543;SHT31;56762;49.494;11.768;2023-04-24T15:21:59;12.54;57.54
69543;SHT31;56762;49.494;11.768;2023-04-24T15:24:26;12.47;57.42
69543;SHT31;56762;49.494;11.768;2023-04-24T15:26:54;12.51;57.35
69543;SHT31;56762;49.494;11.768;2023-04-24T15:29:26;12.58;57.97
69543;SHT31;56762;49.494;11.768;2023-04-24T15:31:53;12.64;57.47
69543;SHT31;56762;49.494;11.768;2023-04-24T15:34:23;12.77;57.97